Главная страница
METAR-TAF:

METAR-TAF

Аэропорты :

Хартум, Судан

широта: 15-36N, долгота: 032-33E, высота над уровнем моря: 382 м

Текущие метеонаблюдения

Эта сводка был подготовлена 38 минут назад, в 22:30 UTC
Ветер 15 Узел от северно-северо-западный
Температура 23°C
Влажность 36%
Давление 1015 hPa
Видимость 10 км и более
Нет облачности ниже 1500 м, и нет кучево-дождевой облачности

METAR: HSSS 182230Z 34015KT CAVOK 23/07 Q1015 NOSIG

Время: 02:08 (23:08 UTC)

Прогноз

Эта сводка был подготовлена 6 часа и 8 минут назад, в 17:00 UTC
Прогноз действительный с 18-го 18 UTC до 19-го 24 UTC
Ветер 10 Узел от северный с порывами до 20 Узел
Видимость 10 км и более
Нет облачности ниже 1500 м, и нет кучево-дождевой облачности
временами
С 19-го 05 UTC до 19-го 11 UTC
Видимость: 6000 м

TAF: HSSS 181700Z 1818/1924 36010G20KT CAVOK TEMPO 1905/1911 6000

Метеонаблюдения и прогнозы для более 4000 аэропортов (сводки METAR и TAF).

Имеющиеся станции представлены на карте желтыми и красными точками.

Чтобы увидеть название станции, наведите на нее мышь.

Затем щелкните, чтобы увидеть метеонаблюдения и метеопрогнозы.

Управление картой: чтобы увеличить масштаб, щелкните зеленые кнопки с черным крестиком; чтобы уменьшить масштаб, щелкните зеленую кнопку с тире; для просмотра соседних карт щелкайте зеленые стрелки.


METAR-TAF: